Time;durP1;ratioP1;P1;durP2;ratioP2;P2;SDS_P1;SDS_P2;PMS_P1;PMS_P2;Temp;Humidity;BMP_temperature;BMP_pressure;BME280_temperature;BME280_humidity;BME280_pressure;Samples;Min_cycle;Max_cycle;Signal;HPM_P1;HPM_P2
2022/07/18 00:00:12;;;;;;;1010.75;944.33;;;;;;;19.26;47.14;102048.47;689229;28;23421;-65
2022/07/18 00:00:34;;;;;;;995.78;929.83;;;;;;;19.26;46.94;102051.22;686909;28;70127;-65
2022/07/18 00:00:55;;;;;;;1004.70;938.40;;;;;;;19.25;47.26;102054.16;685617;28;21519;-66
2022/07/18 00:01:16;;;;;;;1026.85;959.72;;;;;;;19.27;46.92;102052.03;685412;28;23458;-65
2022/07/18 00:01:38;;;;;;;1012.33;945.75;;;;;;;19.26;46.93;102053.94;683873;28;45283;-65
2022/07/18 00:02:02;;;;;;;998.00;932.00;;;;;;;19.25;47.29;102048.66;685155;28;22545;-66
2022/07/18 00:02:23;;;;;;;1005.35;939.05;;;;;;;19.26;47.26;102058.56;682577;28;92183;-66
2022/07/18 00:02:44;;;;;;;997.55;931.55;;;;;;;19.26;47.38;102053.94;686041;28;46410;-65
2022/07/18 00:03:07;;;;;;;1001.83;935.72;;;;;;;19.26;47.19;102056.69;688067;28;23440;-65
2022/07/18 00:03:28;;;;;;;973.42;908.33;;;;;;;19.26;47.31;102062.16;687399;28;45287;-66
2022/07/18 00:03:49;;;;;;;981.45;916.08;;;;;;;19.26;47.03;102058.56;688242;28;22362;-66
2022/07/18 00:04:11;;;;;;;1008.65;942.30;;;;;;;19.26;47.14;102062.16;687669;28;46315;-65
2022/07/18 00:04:33;;;;;;;999.10;933.10;;;;;;;19.28;47.37;102056.47;688088;28;20966;-65
2022/07/18 00:04:54;;;;;;;1015.80;948.95;;;;;;;19.29;47.12;102057.31;687206;28;45204;-65
2022/07/18 00:05:15;;;;;;;1006.55;940.22;;;;;;;19.26;47.17;102053.06;687957;28;23479;-65
2022/07/18 00:05:36;;;;;;;994.25;928.38;;;;;;;19.30;47.43;102062.59;687834;28;22344;-65
2022/07/18 00:05:59;;;;;;;1018.72;951.90;;;;;;;19.31;47.14;102060.69;687294;28;47485;-65
2022/07/18 00:06:20;;;;;;;1012.38;945.83;;;;;;;19.29;47.11;102057.31;683806;28;47832;-65
2022/07/18 00:06:41;;;;;;;998.80;932.70;;;;;;;19.30;47.10;102062.59;685563;28;23469;-65
2022/07/18 00:07:04;;;;;;;985.95;920.25;;;;;;;19.30;47.11;102057.13;684206;28;22227;-65
2022/07/18 00:07:26;;;;;;;1016.95;950.08;;;;;;;19.33;47.11;102066.84;683945;28;69441;-65
2022/07/18 00:07:47;;;;;;;1014.58;947.97;;;;;;;19.33;47.21;102064.94;685149;28;46358;-66
2022/07/18 00:08:08;;;;;;;985.95;920.40;;;;;;;19.34;47.20;102057.53;686094;28;21093;-65
2022/07/18 00:08:32;;;;;;;1005.03;938.70;;;;;;;19.33;46.85;102062.19;688199;28;44415;-65
2022/07/18 00:08:54;;;;;;;1031.18;963.80;;;;;;;19.35;47.10;102068.31;687160;28;67488;-66
2022/07/18 00:09:16;;;;;;;1010.03;943.55;;;;;;;19.35;47.06;102061.97;687920;28;46306;-65
2022/07/18 00:09:37;;;;;;;985.55;919.97;;;;;;;19.37;46.92;102068.09;684888;28;44439;-67
2022/07/18 00:09:59;;;;;;;997.15;931.15;;;;;;;19.38;46.58;102065.16;685769;28;21465;-66
2022/07/18 00:10:21;;;;;;;1019.55;952.70;;;;;;;19.39;46.74;102060.53;684515;28;46199;-65
2022/07/18 00:10:42;;;;;;;994.00;928.08;;;;;;;19.40;46.82;102065.81;685200;28;45222;-65
2022/07/18 00:11:04;;;;;;;984.40;918.92;;;;;;;19.39;46.76;102061.38;685549;28;22388;-65
2022/07/18 00:11:25;;;;;;;1013.42;946.85;;;;;;;19.41;46.69;102066.66;684638;28;47226;-67
2022/07/18 00:11:47;;;;;;;1004.95;938.70;;;;;;;19.41;46.56;102069.41;689632;28;22372;-66
2022/07/18 00:12:10;;;;;;;998.83;932.80;;;;;;;19.43;46.49;102059.06;686851;28;45066;-66
2022/07/18 00:12:31;;;;;;;1003.00;936.75;;;;;;;19.44;46.75;102058.88;686808;28;70252;-65
2022/07/18 00:12:52;;;;;;;998.63;932.60;;;;;;;19.45;46.52;102071.53;688617;28;22394;-65
2022/07/18 00:13:14;;;;;;;996.97;931.08;;;;;;;19.44;46.85;102053.38;687841;28;22329;-66
2022/07/18 00:13:36;;;;;;;985.78;920.20;;;;;;;19.44;46.65;102056.13;687910;28;45248;-66
2022/07/18 00:13:57;;;;;;;1001.87;935.70;;;;;;;19.48;46.46;102055.72;688476;28;22663;-66
2022/07/18 00:14:19;;;;;;;977.65;912.33;;;;;;;19.49;46.75;102057.41;684923;28;42766;-66
2022/07/18 00:14:41;;;;;;;962.13;897.42;;;;;;;19.47;46.57;102054.88;686039;28;23473;-65
2022/07/18 00:15:03;;;;;;;978.92;913.63;;;;;;;19.50;46.68;102056.34;683874;28;67239;-65
2022/07/18 00:15:25;;;;;;;962.65;897.95;;;;;;;19.50;46.42;102054.47;684614;28;44383;-65
2022/07/18 00:15:46;;;;;;;969.78;904.83;;;;;;;19.50;46.72;102061.81;685860;28;22356;-65
2022/07/18 00:16:08;;;;;;;998.47;932.38;;;;;;;19.49;46.51;102052.78;685223;28;47476;-65
2022/07/18 00:16:30;;;;;;;991.17;925.45;;;;;;;19.49;46.70;102052.78;686481;28;43538;-66
2022/07/18 00:16:51;;;;;;;1007.55;941.25;;;;;;;19.45;46.57;102046.88;688155;28;23219;-65
2022/07/18 00:17:12;;;;;;;1003.78;937.50;;;;;;;19.45;46.69;102051.47;687053;28;45275;-66
2022/07/18 00:17:36;;;;;;;999.63;933.60;;;;;;;19.45;46.68;102051.47;688437;28;23231;-66
2022/07/18 00:17:57;;;;;;;998.95;932.83;;;;;;;19.44;46.59;102053.38;686038;28;92504;-66
2022/07/18 00:18:18;;;;;;;1025.00;958.00;;;;;;;19.44;46.55;102052.53;688321;28;22399;-66
2022/07/18 00:18:40;;;;;;;1016.22;949.58;;;;;;;19.44;46.70;102058.03;688510;28;22396;-66
2022/07/18 00:19:02;;;;;;;987.60;921.90;;;;;;;19.42;46.77;102043.69;688489;28;22479;-66
2022/07/18 00:19:23;;;;;;;1002.30;936.13;;;;;;;19.42;46.61;102060.97;686657;28;67463;-66
2022/07/18 00:19:45;;;;;;;977.35;912.35;;;;;;;19.41;46.67;102052.94;688912;28;22301;-67
2022/07/18 00:20:09;;;;;;;978.17;913.13;;;;;;;19.40;46.63;102052.13;687764;28;23472;-67
2022/07/18 00:20:31;;;;;;;979.78;914.65;;;;;;;19.39;46.63;102055.91;685867;28;92198;-66
2022/07/18 00:20:52;;;;;;;980.70;915.53;;;;;;;19.40;46.75;102056.72;686646;28;66820;-66
2022/07/18 00:21:14;;;;;;;1009.45;943.25;;;;;;;19.39;46.55;102046.84;688120;28;21533;-66
2022/07/18 00:21:37;;;;;;;1010.42;944.20;;;;;;;19.39;46.74;102047.69;687193;28;22488;-66
2022/07/18 00:21:59;;;;;;;990.45;924.85;;;;;;;19.39;46.62;102041.38;686911;28;55947;-66
2022/07/18 00:22:22;;;;;;;974.50;909.58;;;;;;;19.38;46.51;102045.97;688037;28;24347;-68
2022/07/18 00:22:44;;;;;;;995.80;930.10;;;;;;;19.38;46.60;102037.75;682706;28;92248;-66
2022/07/18 00:23:05;;;;;;;989.28;923.85;;;;;;;19.40;46.63;102043.03;685700;28;21382;-66
2022/07/18 00:23:26;;;;;;;974.28;909.35;;;;;;;19.36;46.64;102037.13;685059;28;22382;-66
2022/07/18 00:23:47;;;;;;;1003.00;937.08;;;;;;;19.40;46.55;102045.78;685142;28;46609;-66
2022/07/18 00:24:10;;;;;;;992.55;927.05;;;;;;;19.38;46.78;102031.44;685678;28;22334;-66
2022/07/18 00:24:31;;;;;;;988.00;922.70;;;;;;;19.40;46.75;102040.28;685161;28;44375;-66
2022/07/18 00:24:53;;;;;;;997.35;931.65;;;;;;;19.41;46.62;102039.25;687989;28;44362;-66
2022/07/18 00:25:14;;;;;;;977.20;912.17;;;;;;;19.40;46.32;102040.28;687813;28;21505;-67
2022/07/18 00:25:35;;;;;;;981.85;916.63;;;;;;;19.40;46.40;102041.16;687887;28;23528;-67
2022/07/18 00:25:57;;;;;;;993.33;927.80;;;;;;;19.40;46.23;102041.16;687656;28;45217;-67
2022/07/18 00:26:18;;;;;;;984.65;919.42;;;;;;;19.40;46.48;102038.44;686804;28;69429;-67
2022/07/18 00:26:40;;;;;;;1001.65;935.78;;;;;;;19.40;46.20;102040.28;686882;28;43411;-66
2022/07/18 00:27:04;;;;;;;985.03;919.65;;;;;;;19.35;46.16;102032.69;685011;28;22401;-67
2022/07/18 00:27:26;;;;;;;973.78;908.80;;;;;;;19.39;46.21;102038.63;682578;28;92234;-67
2022/07/18 00:27:52;;;;;;;1007.92;941.83;;;;;;;19.39;46.38;102033.16;681846;28;137142;-67
2022/07/18 00:28:14;;;;;;;1005.08;939.13;;;;;;;19.38;46.12;102039.66;685368;28;23482;-66
2022/07/18 00:28:35;;;;;;;987.97;922.53;;;;;;;19.38;46.17;102045.16;684493;28;48141;-66
2022/07/18 00:28:57;;;;;;;961.95;897.45;;;;;;;19.35;46.10;102038.16;687306;28;22479;-66
2022/07/18 00:29:19;;;;;;;972.80;907.95;;;;;;;19.37;46.10;102030.63;687948;28;21511;-67
2022/07/18 00:29:40;;;;;;;1001.53;935.65;;;;;;;19.39;46.29;102042.19;687497;28;46323;-66
2022/07/18 00:30:02;;;;;;;971.55;906.67;;;;;;;19.39;46.19;102044.94;689826;28;23831;-66
2022/07/18 00:30:23;;;;;;;971.20;906.33;;;;;;;19.39;46.22;102035.88;688279;28;44485;-65
2022/07/18 00:30:46;;;;;;;1008.88;942.67;;;;;;;19.38;46.28;102043.25;688695;28;46380;-66
2022/07/18 00:31:07;;;;;;;996.08;930.20;;;;;;;19.39;46.33;102033.16;683108;28;46522;-66
2022/07/18 00:31:28;;;;;;;974.60;909.53;;;;;;;19.37;46.16;102030.63;684657;28;23479;-66
2022/07/18 00:31:49;;;;;;;980.63;915.42;;;;;;;19.37;46.10;102037.97;686144;28;22475;-66
2022/07/18 00:32:12;;;;;;;966.75;902.03;;;;;;;19.37;46.07;102037.97;685053;28;46240;-66
2022/07/18 00:32:33;;;;;;;995.33;929.63;;;;;;;19.37;46.14;102033.34;684650;28;44387;-66
2022/07/18 00:32:54;;;;;;;994.55;928.80;;;;;;;19.37;46.32;102033.34;685872;28;22282;-66
2022/07/18 00:33:15;;;;;;;980.30;915.10;;;;;;;19.37;46.25;102036.09;688020;28;22392;-66
2022/07/18 00:33:38;;;;;;;986.05;920.70;;;;;;;19.37;46.24;102035.22;685321;28;22333;-66
2022/07/18 00:33:59;;;;;;;982.03;916.85;;;;;;;19.38;46.17;102039.66;683864;28;69439;-66
2022/07/18 00:34:20;;;;;;;986.17;920.85;;;;;;;19.37;45.98;102040.69;685435;28;22369;-67
2022/07/18 00:34:42;;;;;;;986.05;920.75;;;;;;;19.38;46.27;102037.75;685549;28;22440;-66
2022/07/18 00:35:03;;;;;;;974.42;909.50;;;;;;;19.38;46.08;102039.66;684598;28;44221;-66
2022/07/18 00:35:25;;;;;;;979.88;914.78;;;;;;;19.38;46.13;102045.16;685832;28;22321;-66
2022/07/18 00:35:47;;;;;;;967.58;902.97;;;;;;;19.40;46.17;102041.16;686258;28;67439;-66
2022/07/18 00:36:08;;;;;;;973.88;909.08;;;;;;;19.39;46.19;102042.19;688066;28;21181;-67
2022/07/18 00:36:30;;;;;;;980.60;915.40;;;;;;;19.39;46.32;102039.47;686696;28;22149;-66
2022/07/18 00:36:51;;;;;;;971.08;906.28;;;;;;;19.40;46.04;102045.78;687368;28;45187;-67
2022/07/18 00:37:13;;;;;;;985.15;919.78;;;;;;;19.40;46.05;102043.03;687637;28;23526;-67
2022/07/18 00:37:36;;;;;;;968.15;903.45;;;;;;;19.39;46.13;102044.94;687469;28;44381;-66
2022/07/18 00:37:57;;;;;;;981.47;916.35;;;;;;;19.38;46.11;102042.41;686977;28;69289;-66
2022/07/18 00:38:18;;;;;;;988.65;923.28;;;;;;;19.39;46.06;102044.94;688065;28;22400;-68
2022/07/18 00:38:40;;;;;;;968.78;903.97;;;;;;;19.41;46.03;102050.22;688316;28;22383;-66
2022/07/18 00:39:03;;;;;;;987.58;922.10;;;;;;;19.40;46.19;102051.25;687711;28;45267;-65
2022/07/18 00:39:24;;;;;;;978.47;913.28;;;;;;;19.38;46.23;102039.66;685889;28;70740;-65
2022/07/18 00:39:48;;;;;;;981.13;915.88;;;;;;;19.40;45.97;102037.56;688879;28;13675;-65
2022/07/18 00:40:11;;;;;;;967.28;902.65;;;;;;;19.40;46.04;102049.38;688441;28;21543;-65
2022/07/18 00:40:33;;;;;;;968.58;903.97;;;;;;;19.39;46.20;102053.16;686346;28;69434;-64
2022/07/18 00:40:54;;;;;;;989.95;924.53;;;;;;;19.39;45.92;102052.31;687353;28;45389;-66
2022/07/18 00:41:15;;;;;;;974.63;909.72;;;;;;;19.38;46.15;102054.19;688391;28;22331;-66
2022/07/18 00:41:38;;;;;;;957.95;893.58;;;;;;;19.36;46.23;102056.31;688252;28;22369;-67
2022/07/18 00:41:59;;;;;;;974.13;909.15;;;;;;;19.37;46.22;102062.63;687293;28;45284;-66
2022/07/18 00:42:20;;;;;;;993.38;927.75;;;;;;;19.37;46.39;102060.75;686943;28;46327;-65
2022/07/18 00:42:43;;;;;;;975.28;910.28;;;;;;;19.37;46.37;102058.00;689324;28;23295;-66
2022/07/18 00:43:04;;;;;;;965.40;900.85;;;;;;;19.35;46.30;102053.78;687368;28;69603;-66
2022/07/18 00:43:25;;;;;;;995.80;930.10;;;;;;;19.35;46.23;102054.59;684409;28;45068;-66
2022/07/18 00:43:47;;;;;;;984.00;918.70;;;;;;;19.36;46.38;102058.22;685490;28;23512;-66
2022/07/18 00:44:17;;;;;;;962.33;897.80;;;;;;;19.34;46.35;102054.81;685502;28;22560;-66
2022/07/18 00:44:38;;;;;;;990.35;924.95;;;;;;;19.34;46.33;102065.75;683090;28;137846;-67
2022/07/18 00:44:59;;;;;;;959.33;894.92;;;;;;;19.34;46.37;102057.53;684083;28;23403;-66
2022/07/18 00:45:22;;;;;;;961.55;897.05;;;;;;;19.31;46.29;102061.56;685430;28;21583;-66
2022/07/18 00:45:44;;;;;;;989.17;923.72;;;;;;;19.32;46.52;102062.38;685042;28;69436;-66
2022/07/18 00:46:05;;;;;;;963.40;898.95;;;;;;;19.31;46.48;102055.22;687000;28;20934;-66
2022/07/18 00:46:28;;;;;;;975.28;910.35;;;;;;;19.28;46.46;102056.47;685342;28;46292;-66
2022/07/18 00:46:50;;;;;;;995.17;929.57;;;;;;;19.31;46.52;102058.81;685771;28;67484;-66
2022/07/18 00:47:12;;;;;;;984.08;918.75;;;;;;;19.30;46.71;102065.34;686967;28;45314;-67
2022/07/18 00:47:33;;;;;;;983.08;917.83;;;;;;;19.31;46.56;102057.94;687343;28;69500;-66
2022/07/18 00:47:54;;;;;;;956.33;891.97;;;;;;;19.31;46.65;102063.44;687424;28;46321;-66
2022/07/18 00:48:16;;;;;;;919.33;856.20;;;;;;;19.30;46.42;102056.28;688456;28;23423;-66
2022/07/18 00:48:38;;;;;;;943.88;880.08;;;;;;;19.32;46.59;102065.97;688312;28;23815;-66
2022/07/18 00:48:59;;;;;;;961.80;897.33;;;;;;;19.30;46.83;102064.50;686038;28;69418;-65
2022/07/18 00:49:21;;;;;;;948.05;884.05;;;;;;;19.31;46.46;102067.03;687865;28;22389;-66
2022/07/18 00:49:43;;;;;;;969.22;904.53;;;;;;;19.29;46.64;102066.38;687948;28;21546;-65
2022/07/18 00:50:07;;;;;;;954.97;890.80;;;;;;;19.29;46.50;102062.78;689057;28;46372;-66
2022/07/18 00:50:28;;;;;;;967.22;902.53;;;;;;;19.27;46.93;102061.09;685466;28;114996;-65
2022/07/18 00:50:50;;;;;;;956.25;891.97;;;;;;;19.27;46.84;102063.84;688870;28;21519;-67
2022/07/18 00:51:12;;;;;;;967.10;902.42;;;;;;;19.28;46.75;102067.44;688262;28;22464;-66
2022/07/18 00:51:36;;;;;;;950.75;886.63;;;;;;;19.24;46.74;102057.94;685961;28;67487;-66
2022/07/18 00:51:57;;;;;;;963.67;899.20;;;;;;;19.28;46.76;102070.19;686148;28;92193;-66
2022/07/18 00:52:18;;;;;;;982.08;916.95;;;;;;;19.26;46.88;102064.91;688023;28;22402;-66
2022/07/18 00:52:42;;;;;;;968.25;903.65;;;;;;;19.24;46.91;102063.41;689666;28;23462;-65
2022/07/18 00:53:05;;;;;;;976.85;911.92;;;;;;;19.26;46.78;102073.13;686010;28;92029;-66
2022/07/18 00:53:26;;;;;;;991.60;926.08;;;;;;;19.26;46.88;102061.28;686799;28;70228;-66
2022/07/18 00:53:48;;;;;;;969.33;904.70;;;;;;;19.27;46.96;102068.47;688119;28;46393;-65
2022/07/18 00:54:10;;;;;;;986.50;921.13;;;;;;;19.25;46.81;102065.94;687340;28;45233;-65
2022/07/18 00:54:32;;;;;;;1004.95;938.95;;;;;;;19.22;47.08;102071.81;687135;28;45227;-65
2022/07/18 00:54:54;;;;;;;992.60;927.08;;;;;;;19.24;46.94;102064.25;684468;28;46276;-65
2022/07/18 00:55:16;;;;;;;967.03;902.38;;;;;;;19.23;46.66;102062.56;684700;28;21524;-66
2022/07/18 00:55:38;;;;;;;993.72;928.08;;;;;;;19.24;46.70;102069.72;683601;28;68414;-65
2022/07/18 00:56:03;;;;;;;1016.22;949.67;;;;;;;19.24;46.95;102068.88;685505;28;23475;-65
2022/07/18 00:56:24;;;;;;;999.25;933.28;;;;;;;19.24;46.78;102075.19;680208;28;136873;-65
2022/07/18 00:56:48;;;;;;;985.13;919.65;;;;;;;19.25;46.94;102070.59;687164;28;23391;-65
2022/07/18 00:57:12;;;;;;;987.70;922.13;;;;;;;19.24;46.89;102074.34;684591;28;91796;-66
2022/07/18 00:57:35;;;;;;;975.40;910.15;;;;;;;19.24;47.02;102063.41;680928;28;162893;-66
2022/07/18 00:58:01;;;;;;;990.13;924.45;;;;;;;19.24;47.15;102068.88;683194;28;92261;-66
2022/07/18 00:58:23;;;;;;;982.30;916.88;;;;;;;19.23;47.08;102069.91;683400;28;90724;-66
2022/07/18 00:58:49;;;;;;;986.00;920.55;;;;;;;19.25;46.85;102065.09;686589;28;1052;-66
2022/07/18 00:59:13;;;;;;;983.92;918.33;;;;;;;19.25;47.10;102067.84;680653;28;137900;-66
2022/07/18 01:01:42;;;;;;;966.33;901.40;;;;;;;19.21;47.34;102069.28;680204;28;78695;-67
2022/07/18 01:02:03;;;;;;;1003.25;937.10;;;;;;;19.24;47.36;102074.34;681282;28;104239;-66
2022/07/18 01:02:26;;;;;;;993.10;927.55;;;;;;;19.24;47.64;102063.41;683447;28;23470;-66
2022/07/18 01:02:49;;;;;;;971.33;906.53;;;;;;;19.24;47.32;102069.72;685816;28;1507;-66
2022/07/18 01:03:11;;;;;;;978.13;913.08;;;;;;;19.25;47.28;102070.59;684316;28;13367;-66
2022/07/18 01:03:34;;;;;;;986.83;921.42;;;;;;;19.24;47.34;102068.88;685733;28;999;-66
2022/07/18 01:03:55;;;;;;;967.33;902.63;;;;;;;19.24;47.45;102066.13;683613;28;1973;-66
2022/07/18 01:04:22;;;;;;;963.67;899.10;;;;;;;19.23;47.30;102073.53;682626;28;17514;-67
2022/07/18 01:04:44;;;;;;;1000.90;935.03;;;;;;;19.21;47.31;102061.06;682085;28;60199;-67
2022/07/18 01:05:06;;;;;;;995.55;929.88;;;;;;;19.22;47.48;102071.00;683693;28;23416;-67
2022/07/18 01:05:27;;;;;;;963.47;898.97;;;;;;;19.22;47.39;102071.81;679252;29;45244;-67
2022/07/18 01:05:49;;;;;;;985.95;920.67;;;;;;;19.23;47.40;102067.19;681304;28;21514;-67
2022/07/18 01:06:10;;;;;;;996.05;930.35;;;;;;;19.23;47.29;102064.44;682002;28;46735;-67
2022/07/18 01:06:31;;;;;;;983.28;918.05;;;;;;;19.22;47.51;102066.34;682528;28;22401;-67
2022/07/18 01:06:53;;;;;;;967.47;902.80;;;;;;;19.23;47.40;102064.44;685346;28;45294;-67
2022/07/18 01:07:15;;;;;;;993.03;927.35;;;;;;;19.22;47.37;102065.50;686859;28;21711;-67
2022/07/18 01:07:36;;;;;;;998.88;933.08;;;;;;;19.21;47.45;102059.16;687615;28;46313;-67
2022/07/18 01:08:03;;;;;;;972.25;907.40;;;;;;;19.20;47.36;102056.63;688721;28;21277;-66
2022/07/18 01:08:24;;;;;;;963.40;898.85;;;;;;;19.19;47.42;102055.78;684454;28;137755;-66
2022/07/18 01:08:45;;;;;;;995.13;929.45;;;;;;;19.16;47.59;102060.84;689405;28;1914;-67
2022/07/18 01:09:07;;;;;;;1004.15;938.15;;;;;;;19.17;47.38;102059.78;684411;28;22388;-66
2022/07/18 01:09:29;;;;;;;999.45;933.70;;;;;;;19.16;47.43;102060.84;683994;28;67301;-67
2022/07/18 01:09:50;;;;;;;967.80;903.15;;;;;;;19.17;47.39;102063.38;685599;28;23560;-66
2022/07/18 01:10:12;;;;;;;959.25;894.85;;;;;;;19.13;47.19;102053.03;685152;28;23426;-66
2022/07/18 01:10:34;;;;;;;1006.47;940.17;;;;;;;19.15;47.39;102056.41;683478;28;67431;-67
2022/07/18 01:10:55;;;;;;;988.38;922.92;;;;;;;19.14;47.44;102054.69;686096;28;21682;-66
2022/07/18 01:11:16;;;;;;;954.33;890.10;;;;;;;19.14;47.19;102063.78;688306;28;22330;-66
2022/07/18 01:11:39;;;;;;;961.17;896.72;;;;;;;19.13;47.47;102058.50;687577;28;22419;-66
2022/07/18 01:12:02;;;;;;;947.17;883.15;;;;;;;19.13;47.38;102055.75;687751;28;69393;-66
2022/07/18 01:12:25;;;;;;;961.38;896.85;;;;;;;19.13;47.37;102063.97;686420;28;69472;-66
2022/07/18 01:12:46;;;;;;;977.60;912.38;;;;;;;19.13;47.33;102055.75;685932;28;62483;-67
2022/07/18 01:13:08;;;;;;;981.67;916.30;;;;;;;19.07;47.53;102046.44;688165;28;21491;-66
2022/07/18 01:13:30;;;;;;;975.63;910.42;;;;;;;19.12;47.43;102054.06;687599;28;44450;-66
2022/07/18 01:13:51;;;;;;;989.08;923.38;;;;;;;19.11;47.48;102057.84;687453;28;45183;-65
2022/07/18 01:14:13;;;;;;;974.53;909.38;;;;;;;19.07;47.43;102051.94;688099;28;22363;-65
2022/07/18 01:14:36;;;;;;;974.75;909.58;;;;;;;19.09;47.52;102053.44;687166;28;46293;-65
2022/07/18 01:15:01;;;;;;;1016.72;950.03;;;;;;;19.09;47.60;102055.34;687215;28;67245;-65
2022/07/18 01:15:23;;;;;;;1013.28;946.72;;;;;;;19.08;47.46;102059.94;684806;28;116067;-66
2022/07/18 01:15:44;;;;;;;990.60;924.90;;;;;;;19.11;47.56;102055.09;687905;28;46226;-66
2022/07/18 01:16:07;;;;;;;1013.00;946.45;;;;;;;19.09;47.42;102056.16;687790;28;22184;-66
2022/07/18 01:16:28;;;;;;;1023.72;956.80;;;;;;;19.11;47.54;102057.84;685882;28;69319;-66
2022/07/18 01:16:50;;;;;;;1007.15;940.88;;;;;;;19.09;47.51;102058.06;687863;28;21529;-66
2022/07/18 01:17:13;;;;;;;993.90;927.97;;;;;;;19.12;47.57;102059.53;686820;28;46148;-66
2022/07/18 01:17:35;;;;;;;1007.10;940.88;;;;;;;19.09;47.56;102053.44;687619;28;69417;-65
2022/07/18 01:17:57;;;;;;;988.80;923.40;;;;;;;19.12;47.43;102062.28;688785;28;21324;-65
2022/07/18 01:18:18;;;;;;;972.97;908.08;;;;;;;19.12;47.38;102063.13;688065;28;23523;-65
2022/07/18 01:18:44;;;;;;;985.17;919.85;;;;;;;19.07;47.42;102058.28;687179;28;44375;-66
2022/07/18 01:19:06;;;;;;;1001.83;935.93;;;;;;;19.12;47.49;102065.00;684356;28;138013;-65
2022/07/18 01:19:27;;;;;;;983.53;918.25;;;;;;;19.11;47.47;102064.19;686313;28;69343;-65
2022/07/18 01:19:48;;;;;;;976.10;911.05;;;;;;;19.11;47.25;102063.31;688454;28;22393;-65
2022/07/18 01:20:11;;;;;;;1005.58;939.47;;;;;;;19.11;47.32;102057.84;688959;28;23460;-65
2022/07/18 01:20:34;;;;;;;997.25;931.55;;;;;;;19.07;47.41;102060.16;686946;28;44020;-65
2022/07/18 01:20:55;;;;;;;979.55;914.45;;;;;;;19.07;47.18;102066.50;685850;28;92146;-65
2022/07/18 01:21:17;;;;;;;973.35;908.38;;;;;;;19.05;47.42;102060.34;688119;28;23496;-65
2022/07/18 01:21:39;;;;;;;1004.38;938.33;;;;;;;19.05;47.38;102063.09;686584;28;46414;-66
2022/07/18 01:22:01;;;;;;;1008.10;941.92;;;;;;;19.05;47.34;102064.97;688140;28;23370;-66
2022/07/18 01:22:22;;;;;;;1001.42;935.47;;;;;;;19.03;47.45;102061.63;686452;28;69490;-66
2022/07/18 01:22:43;;;;;;;998.25;932.25;;;;;;;19.02;47.41;102060.75;687567;28;45273;-66
2022/07/18 01:23:05;;;;;;;981.40;916.00;;;;;;;19.02;47.38;102062.66;688161;28;23416;-66
2022/07/18 01:23:29;;;;;;;1012.38;945.83;;;;;;;19.00;47.31;102062.00;687521;28;45223;-66
2022/07/18 01:23:51;;;;;;;1002.30;936.17;;;;;;;18.98;47.54;102051.25;686217;28;90320;-65
2022/07/18 01:24:12;;;;;;;981.38;915.97;;;;;;;19.01;47.38;102066.41;688175;28;20858;-65
2022/07/18 01:24:34;;;;;;;1003.05;936.80;;;;;;;18.99;47.31;102063.06;686874;28;46341;-65
2022/07/18 01:24:56;;;;;;;1017.78;951.00;;;;;;;18.99;47.43;102066.63;688162;28;45251;-67
2022/07/18 01:25:17;;;;;;;1009.35;942.92;;;;;;;18.99;47.49;102068.53;687762;28;46265;-65
2022/07/18 01:25:39;;;;;;;988.70;923.03;;;;;;;18.98;47.36;102064.94;689398;28;22379;-66
2022/07/18 01:26:00;;;;;;;1012.22;945.65;;;;;;;18.96;47.74;102058.81;688537;28;23538;-65
2022/07/18 01:26:22;;;;;;;1036.43;968.87;;;;;;;18.98;47.41;102061.34;686692;28;46392;-66
2022/07/18 01:26:44;;;;;;;1025.35;958.35;;;;;;;18.97;47.39;102065.16;688187;28;46426;-65
2022/07/18 01:27:05;;;;;;;1020.70;953.80;;;;;;;18.96;47.68;102061.56;687469;28;44755;-65
2022/07/18 01:27:26;;;;;;;1005.03;938.70;;;;;;;18.96;47.46;102064.28;687641;28;46279;-66
2022/07/18 01:27:48;;;;;;;976.90;911.65;;;;;;;18.96;47.62;102061.56;689100;28;22389;-66
2022/07/18 01:28:10;;;;;;;988.13;922.47;;;;;;;18.96;47.52;102058.81;690292;28;24220;-65
2022/07/18 01:28:31;;;;;;;1017.38;950.63;;;;;;;18.94;47.61;102057.34;687324;28;69455;-65
2022/07/18 01:28:53;;;;;;;1012.45;945.92;;;;;;;18.95;47.62;102059.00;688683;28;46142;-65
2022/07/18 01:29:14;;;;;;;1001.97;935.85;;;;;;;18.97;47.51;102065.16;688931;28;22540;-66
2022/07/18 01:29:36;;;;;;;984.75;919.15;;;;;;;18.96;47.66;102057.97;688311;28;21524;-65
2022/07/18 01:29:57;;;;;;;1001.28;935.13;;;;;;;18.97;47.55;102065.16;688030;28;45227;-65
2022/07/18 01:30:19;;;;;;;988.78;923.13;;;;;;;18.96;47.66;102061.56;688106;28;44374;-65
2022/07/18 01:30:40;;;;;;;987.40;921.72;;;;;;;18.96;47.70;102064.28;689596;28;22400;-65
2022/07/18 01:31:03;;;;;;;1025.38;958.30;;;;;;;18.91;47.67;102048.47;687479;28;46290;-65
2022/07/18 01:31:24;;;;;;;1019.08;952.25;;;;;;;18.98;47.51;102061.34;687164;28;46378;-66
2022/07/18 01:31:45;;;;;;;991.05;925.20;;;;;;;18.99;47.53;102065.78;688971;28;24212;-66
2022/07/18 01:32:07;;;;;;;986.85;921.17;;;;;;;18.99;47.58;102063.06;688437;28;22202;-66
2022/07/18 01:32:29;;;;;;;1021.83;954.83;;;;;;;19.01;47.83;102063.69;686948;28;67466;-66
2022/07/18 01:32:56;;;;;;;1010.90;944.33;;;;;;;18.99;47.83;102052.09;688120;28;46301;-66
2022/07/18 01:33:22;;;;;;;997.92;931.92;;;;;;;19.01;47.85;102055.47;687376;28;58792;-65
2022/07/18 01:33:45;;;;;;;1006.58;940.20;;;;;;;19.02;47.53;102068.97;686429;28;92303;-67
2022/07/18 01:34:08;;;;;;;998.60;932.53;;;;;;;19.01;47.70;102056.34;688651;28;22414;-67
2022/07/18 01:34:32;;;;;;;1007.70;941.30;;;;;;;19.01;47.41;102056.34;687583;28;46511;-66
2022/07/18 01:34:54;;;;;;;999.50;933.35;;;;;;;19.01;47.85;102059.06;689587;28;21474;-65
2022/07/18 01:35:16;;;;;;;981.45;915.95;;;;;;;19.00;47.86;102049.16;689194;28;1358;-66
2022/07/18 01:35:38;;;;;;;1014.45;947.70;;;;;;;19.02;47.70;102059.91;688677;28;22433;-66
2022/07/18 01:36:02;;;;;;;1017.65;950.88;;;;;;;19.02;47.51;102060.75;686891;28;68346;-67
2022/07/18 01:36:23;;;;;;;1000.25;934.13;;;;;;;19.03;47.74;102053.41;686500;28;69897;-66
2022/07/18 01:36:44;;;;;;;989.90;924.20;;;;;;;19.03;47.74;102064.34;689398;28;22378;-67
2022/07/18 01:37:06;;;;;;;1014.97;948.22;;;;;;;19.03;47.47;102056.13;688310;28;20244;-67
2022/07/18 01:37:28;;;;;;;1011.50;945.00;;;;;;;19.02;47.63;102058.00;687614;28;44344;-65
2022/07/18 01:37:50;;;;;;;1003.00;936.75;;;;;;;19.01;47.69;102050.88;687742;28;45245;-65
2022/07/18 01:38:12;;;;;;;999.83;933.75;;;;;;;19.02;47.43;102057.19;687175;28;69395;-65
2022/07/18 01:38:34;;;;;;;1010.45;943.95;;;;;;;18.96;47.52;102047.03;688637;28;21523;-66
2022/07/18 01:38:56;;;;;;;1004.00;937.72;;;;;;;19.02;47.61;102057.19;688206;28;44451;-65
2022/07/18 01:39:17;;;;;;;997.67;931.67;;;;;;;19.00;47.59;102049.16;687563;28;46124;-65
2022/07/18 01:39:39;;;;;;;1006.72;940.42;;;;;;;19.01;47.55;102059.06;689152;28;22572;-65
2022/07/18 01:40:00;;;;;;;996.63;930.63;;;;;;;18.99;47.57;102044.72;688224;28;44114;-66
2022/07/18 01:40:23;;;;;;;979.80;914.40;;;;;;;19.00;47.50;102051.91;688543;28;23413;-66
2022/07/18 01:40:44;;;;;;;986.08;920.50;;;;;;;18.99;47.61;102050.19;687761;28;59586;-66